sensor_id;sensor_type;location;lat;lon;timestamp;pressure;altitude;pressure_sealevel;temperature;humidity
71567;BME280;59403;47.456;19.120;2022-07-29T00:01:28;100326.94;;;23.73;47.99
71567;BME280;59403;47.456;19.120;2022-07-29T00:03:55;100325.31;;;23.72;48.06
71567;BME280;59403;47.456;19.120;2022-07-29T00:06:22;100327.69;;;23.68;48.19
71567;BME280;59403;47.456;19.120;2022-07-29T00:08:48;100326.19;;;23.60;50.04
71567;BME280;59403;47.456;19.120;2022-07-29T00:11:15;100325.37;;;23.60;48.78
71567;BME280;59403;47.456;19.120;2022-07-29T00:13:44;100329.47;;;23.62;48.84
71567;BME280;59403;47.456;19.120;2022-07-29T00:16:11;100325.37;;;23.60;48.68
71567;BME280;59403;47.456;19.120;2022-07-29T00:18:38;100322.81;;;23.53;49.12
71567;BME280;59403;47.456;19.120;2022-07-29T00:21:05;100314.13;;;23.51;49.02
71567;BME280;59403;47.456;19.120;2022-07-29T00:23:32;100322.97;;;23.47;49.26
71567;BME280;59403;47.456;19.120;2022-07-29T00:25:59;100328.63;;;23.45;49.31
71567;BME280;59403;47.456;19.120;2022-07-29T00:28:26;100325.59;;;23.42;49.61
71567;BME280;59403;47.456;19.120;2022-07-29T00:30:54;100333.19;;;23.45;49.28
71567;BME280;59403;47.456;19.120;2022-07-29T00:33:21;100328.28;;;23.42;49.29
71567;BME280;59403;47.456;19.120;2022-07-29T00:35:49;100330.66;;;23.38;49.68
71567;BME280;59403;47.456;19.120;2022-07-29T00:38:17;100334.25;;;23.44;49.19
71567;BME280;59403;47.456;19.120;2022-07-29T00:40:46;100331.66;;;23.49;48.51
71567;BME280;59403;47.456;19.120;2022-07-29T00:43:14;100329.75;;;23.49;48.62
71567;BME280;59403;47.456;19.120;2022-07-29T00:45:41;100333.28;;;23.50;48.51
71567;BME280;59403;47.456;19.120;2022-07-29T00:48:09;100332.97;;;23.46;48.77
71567;BME280;59403;47.456;19.120;2022-07-29T00:50:36;100327.47;;;23.41;48.92
71567;BME280;59403;47.456;19.120;2022-07-29T00:53:05;100339.22;;;23.35;49.26
71567;BME280;59403;47.456;19.120;2022-07-29T00:55:33;100339.13;;;23.30;49.74
71567;BME280;59403;47.456;19.120;2022-07-29T00:58:00;100332.22;;;23.23;50.22
71567;BME280;59403;47.456;19.120;2022-07-29T01:00:28;100327.50;;;23.18;50.50
71567;BME280;59403;47.456;19.120;2022-07-29T01:02:55;100336.59;;;23.12;50.73
71567;BME280;59403;47.456;19.120;2022-07-29T01:05:26;100334.50;;;23.03;51.39
71567;BME280;59403;47.456;19.120;2022-07-29T01:07:55;100331.00;;;22.91;53.63
71567;BME280;59403;47.456;19.120;2022-07-29T01:10:24;100329.72;;;22.82;54.40
71567;BME280;59403;47.456;19.120;2022-07-29T01:12:52;100324.22;;;22.77;54.83
71567;BME280;59403;47.456;19.120;2022-07-29T01:15:20;100331.97;;;22.73;55.50
71567;BME280;59403;47.456;19.120;2022-07-29T01:17:52;100327.06;;;22.70;55.17
71567;BME280;59403;47.456;19.120;2022-07-29T01:20:26;100324.94;;;22.72;54.06
71567;BME280;59403;47.456;19.120;2022-07-29T01:23:34;100329.84;;;22.75;54.38
71567;BME280;59403;47.456;19.120;2022-07-29T01:26:29;100336.22;;;22.69;53.32
71567;BME280;59403;47.456;19.120;2022-07-29T01:29:07;100330.59;;;22.71;52.96
71567;BME280;59403;47.456;19.120;2022-07-29T01:31:43;100320.94;;;22.75;53.22
71567;BME280;59403;47.456;19.120;2022-07-29T01:34:18;100320.34;;;22.73;53.56
71567;BME280;59403;47.456;19.120;2022-07-29T01:36:51;100319.88;;;22.64;54.02
71567;BME280;59403;47.456;19.120;2022-07-29T01:39:26;100322.25;;;22.61;54.36
71567;BME280;59403;47.456;19.120;2022-07-29T01:41:57;100324.38;;;22.59;54.75
71567;BME280;59403;47.456;19.120;2022-07-29T01:44:31;100322.13;;;22.56;54.31
71567;BME280;59403;47.456;19.120;2022-07-29T01:47:04;100321.19;;;22.50;54.62
71567;BME280;59403;47.456;19.120;2022-07-29T01:49:35;100324.34;;;22.47;54.54
71567;BME280;59403;47.456;19.120;2022-07-29T01:52:07;100314.13;;;22.49;54.00
71567;BME280;59403;47.456;19.120;2022-07-29T01:54:39;100318.81;;;22.53;53.37
71567;BME280;59403;47.456;19.120;2022-07-29T01:57:11;100319.44;;;22.56;53.42
71567;BME280;59403;47.456;19.120;2022-07-29T01:59:42;100327.63;;;22.49;53.71
71567;BME280;59403;47.456;19.120;2022-07-29T02:02:11;100316.34;;;22.52;53.66
71567;BME280;59403;47.456;19.120;2022-07-29T02:04:41;100323.31;;;22.48;53.78
71567;BME280;59403;47.456;19.120;2022-07-29T02:07:13;100325.28;;;22.41;54.16
71567;BME280;59403;47.456;19.120;2022-07-29T02:09:42;100324.13;;;22.37;54.60
71567;BME280;59403;47.456;19.120;2022-07-29T02:12:10;100325.19;;;22.36;54.19
71567;BME280;59403;47.456;19.120;2022-07-29T02:14:43;100323.19;;;22.43;53.82
71567;BME280;59403;47.456;19.120;2022-07-29T02:17:12;100328.69;;;22.48;52.84
71567;BME280;59403;47.456;19.120;2022-07-29T02:19:42;100319.06;;;22.52;52.80
71567;BME280;59403;47.456;19.120;2022-07-29T02:22:11;100315.31;;;22.53;52.67
71567;BME280;59403;47.456;19.120;2022-07-29T02:24:39;100313.00;;;22.57;52.48
71567;BME280;59403;47.456;19.120;2022-07-29T02:27:07;100319.06;;;22.52;52.94
71567;BME280;59403;47.456;19.120;2022-07-29T02:29:35;100309.91;;;22.53;52.97
71567;BME280;59403;47.456;19.120;2022-07-29T02:32:06;100314.72;;;22.51;53.20
71567;BME280;59403;47.456;19.120;2022-07-29T02:34:37;100310.50;;;22.43;53.92
71567;BME280;59403;47.456;19.120;2022-07-29T02:37:05;100309.00;;;22.36;54.37
71567;BME280;59403;47.456;19.120;2022-07-29T02:39:35;100318.84;;;22.30;54.70
71567;BME280;59403;47.456;19.120;2022-07-29T02:42:07;100308.97;;;22.24;55.05
71567;BME280;59403;47.456;19.120;2022-07-29T02:44:34;100311.78;;;22.18;55.59
71567;BME280;59403;47.456;19.120;2022-07-29T02:47:07;100308.97;;;22.13;55.80
71567;BME280;59403;47.456;19.120;2022-07-29T02:49:37;100318.81;;;22.07;55.71
71567;BME280;59403;47.456;19.120;2022-07-29T02:52:09;100316.97;;;22.08;54.98
71567;BME280;59403;47.456;19.120;2022-07-29T02:54:41;100316.72;;;22.09;55.39
71567;BME280;59403;47.456;19.120;2022-07-29T02:57:17;100316.13;;;22.07;55.47
71567;BME280;59403;47.456;19.120;2022-07-29T02:59:48;100309.34;;;22.05;55.50
71567;BME280;59403;47.456;19.120;2022-07-29T03:02:18;100316.38;;;22.06;55.42
71567;BME280;59403;47.456;19.120;2022-07-29T03:04:47;100314.94;;;22.03;55.64
71567;BME280;59403;47.456;19.120;2022-07-29T03:07:18;100311.87;;;22.00;55.79
71567;BME280;59403;47.456;19.120;2022-07-29T03:09:45;100312.13;;;21.98;56.24
71567;BME280;59403;47.456;19.120;2022-07-29T03:12:14;100304.28;;;21.97;56.25
71567;BME280;59403;47.456;19.120;2022-07-29T03:14:42;100310.38;;;21.92;56.58
71567;BME280;59403;47.456;19.120;2022-07-29T03:17:10;100314.09;;;21.91;56.71
71567;BME280;59403;47.456;19.120;2022-07-29T03:19:39;100311.41;;;21.80;57.45
71567;BME280;59403;47.456;19.120;2022-07-29T03:22:07;100308.72;;;21.80;57.66
71567;BME280;59403;47.456;19.120;2022-07-29T03:24:35;100308.56;;;21.75;57.72
71567;BME280;59403;47.456;19.120;2022-07-29T03:27:03;100310.06;;;21.71;57.80
71567;BME280;59403;47.456;19.120;2022-07-29T03:29:31;100311.13;;;21.70;57.81
71567;BME280;59403;47.456;19.120;2022-07-29T03:31:58;100315.09;;;21.67;57.97
71567;BME280;59403;47.456;19.120;2022-07-29T03:34:25;100314.13;;;21.62;58.40
71567;BME280;59403;47.456;19.120;2022-07-29T03:36:53;100315.66;;;21.58;59.02
71567;BME280;59403;47.456;19.120;2022-07-29T03:39:23;100323.62;;;21.53;59.40
71567;BME280;59403;47.456;19.120;2022-07-29T03:41:55;100316.34;;;21.53;59.05
71567;BME280;59403;47.456;19.120;2022-07-29T03:44:22;100315.31;;;21.54;58.74
71567;BME280;59403;47.456;19.120;2022-07-29T03:46:50;100316.69;;;21.57;58.15
71567;BME280;59403;47.456;19.120;2022-07-29T03:49:20;100318.13;;;21.59;57.99
71567;BME280;59403;47.456;19.120;2022-07-29T03:51:48;100321.66;;;21.60;57.72
71567;BME280;59403;47.456;19.120;2022-07-29T03:54:16;100322.69;;;21.59;57.61
71567;BME280;59403;47.456;19.120;2022-07-29T03:56:45;100322.56;;;21.65;57.03
71567;BME280;59403;47.456;19.120;2022-07-29T03:59:13;100328.94;;;21.71;56.28
71567;BME280;59403;47.456;19.120;2022-07-29T04:01:41;100335.37;;;21.70;56.63
71567;BME280;59403;47.456;19.120;2022-07-29T04:04:08;100333.97;;;21.67;57.18
71567;BME280;59403;47.456;19.120;2022-07-29T04:06:39;100338.87;;;21.70;56.67
71567;BME280;59403;47.456;19.120;2022-07-29T04:09:07;100335.75;;;21.73;56.49
71567;BME280;59403;47.456;19.120;2022-07-29T04:11:36;100335.28;;;21.76;56.42
71567;BME280;59403;47.456;19.120;2022-07-29T04:14:04;100330.28;;;21.80;56.22
71567;BME280;59403;47.456;19.120;2022-07-29T04:16:32;100325.94;;;21.79;56.31
71567;BME280;59403;47.456;19.120;2022-07-29T04:18:59;100332.75;;;21.81;56.41
71567;BME280;59403;47.456;19.120;2022-07-29T04:21:26;100336.25;;;21.82;56.34
71567;BME280;59403;47.456;19.120;2022-07-29T04:23:53;100331.47;;;21.84;56.42
71567;BME280;59403;47.456;19.120;2022-07-29T04:26:20;100329.81;;;21.83;56.39
71567;BME280;59403;47.456;19.120;2022-07-29T04:28:48;100331.69;;;21.82;58.77
71567;BME280;59403;47.456;19.120;2022-07-29T04:31:15;100331.69;;;21.82;56.57
71567;BME280;59403;47.456;19.120;2022-07-29T04:33:42;100334.75;;;21.86;56.33
71567;BME280;59403;47.456;19.120;2022-07-29T04:36:09;100332.88;;;21.86;56.36
71567;BME280;59403;47.456;19.120;2022-07-29T04:38:37;100329.94;;;21.88;56.50
71567;BME280;59403;47.456;19.120;2022-07-29T04:41:04;100333.94;;;21.85;56.87
71567;BME280;59403;47.456;19.120;2022-07-29T04:43:32;100331.81;;;21.87;56.84
71567;BME280;59403;47.456;19.120;2022-07-29T04:46:00;100332.75;;;21.93;56.53
71567;BME280;59403;47.456;19.120;2022-07-29T04:48:27;100328.53;;;21.97;56.31
71567;BME280;59403;47.456;19.120;2022-07-29T04:50:55;100336.75;;;22.02;56.41
71567;BME280;59403;47.456;19.120;2022-07-29T04:53:22;100338.41;;;22.03;56.30
71567;BME280;59403;47.456;19.120;2022-07-29T04:55:49;100337.47;;;22.09;56.56
71567;BME280;59403;47.456;19.120;2022-07-29T04:58:16;100335.03;;;22.42;55.60
71567;BME280;59403;47.456;19.120;2022-07-29T05:00:43;100341.72;;;22.51;55.24
71567;BME280;59403;47.456;19.120;2022-07-29T05:03:11;100340.69;;;22.64;54.67
71567;BME280;59403;47.456;19.120;2022-07-29T05:05:38;100342.56;;;22.63;54.78
71567;BME280;59403;47.456;19.120;2022-07-29T05:08:06;100337.38;;;22.73;54.58
71567;BME280;59403;47.456;19.120;2022-07-29T05:10:33;100343.47;;;22.80;54.68
71567;BME280;59403;47.456;19.120;2022-07-29T05:13:04;100343.94;;;22.77;54.38
71567;BME280;59403;47.456;19.120;2022-07-29T05:15:31;100344.31;;;22.81;54.72
71567;BME280;59403;47.456;19.120;2022-07-29T05:17:58;100338.28;;;22.90;54.07
71567;BME280;59403;47.456;19.120;2022-07-29T05:20:26;100343.78;;;22.95;54.01
71567;BME280;59403;47.456;19.120;2022-07-29T05:22:54;100339.91;;;23.03;54.85
71567;BME280;59403;47.456;19.120;2022-07-29T05:25:21;100346.47;;;23.07;53.65
71567;BME280;59403;47.456;19.120;2022-07-29T05:27:48;100348.09;;;23.08;53.92
71567;BME280;59403;47.456;19.120;2022-07-29T05:30:15;100346.81;;;23.10;53.79
71567;BME280;59403;47.456;19.120;2022-07-29T05:32:42;100347.25;;;23.19;53.50
71567;BME280;59403;47.456;19.120;2022-07-29T05:35:09;100347.12;;;23.25;53.31
71567;BME280;59403;47.456;19.120;2022-07-29T05:37:38;100342.59;;;23.42;52.48
71567;BME280;59403;47.456;19.120;2022-07-29T05:40:06;100338.03;;;23.43;52.17
71567;BME280;59403;47.456;19.120;2022-07-29T05:42:33;100333.53;;;23.48;52.12
71567;BME280;59403;47.456;19.120;2022-07-29T05:44:59;100329.38;;;23.57;51.23
71567;BME280;59403;47.456;19.120;2022-07-29T05:47:27;100342.41;;;23.60;50.92
71567;BME280;59403;47.456;19.120;2022-07-29T05:49:54;100335.69;;;23.63;51.26
71567;BME280;59403;47.456;19.120;2022-07-29T05:52:21;100346.03;;;23.66;51.27
71567;BME280;59403;47.456;19.120;2022-07-29T05:54:49;100346.28;;;23.81;49.97
71567;BME280;59403;47.456;19.120;2022-07-29T05:57:16;100346.03;;;23.83;50.50
71567;BME280;59403;47.456;19.120;2022-07-29T05:59:43;100350.53;;;24.05;50.13
71567;BME280;59403;47.456;19.120;2022-07-29T06:02:10;100346.09;;;24.32;49.30
71567;BME280;59403;47.456;19.120;2022-07-29T06:04:37;100352.25;;;24.44;48.81
71567;BME280;59403;47.456;19.120;2022-07-29T06:07:05;100350.25;;;24.40;48.65
71567;BME280;59403;47.456;19.120;2022-07-29T06:09:32;100348.03;;;24.53;48.46
71567;BME280;59403;47.456;19.120;2022-07-29T06:12:00;100352.53;;;24.64;48.69
71567;BME280;59403;47.456;19.120;2022-07-29T06:14:27;100351.56;;;24.71;48.56
71567;BME280;59403;47.456;19.120;2022-07-29T06:16:54;100347.28;;;24.75;47.98
71567;BME280;59403;47.456;19.120;2022-07-29T06:19:21;100349.37;;;24.89;47.32
71567;BME280;59403;47.456;19.120;2022-07-29T06:21:48;100356.63;;;25.05;47.51
71567;BME280;59403;47.456;19.120;2022-07-29T06:24:16;100357.81;;;25.14;47.22
71567;BME280;59403;47.456;19.120;2022-07-29T06:26:43;100354.16;;;25.25;46.63
71567;BME280;59403;47.456;19.120;2022-07-29T06:29:11;100354.34;;;25.40;46.18
71567;BME280;59403;47.456;19.120;2022-07-29T06:31:38;100359.25;;;25.38;46.10
71567;BME280;59403;47.456;19.120;2022-07-29T06:34:05;100355.03;;;25.52;45.80
71567;BME280;59403;47.456;19.120;2022-07-29T06:36:34;100359.53;;;25.68;45.96
71567;BME280;59403;47.456;19.120;2022-07-29T06:39:04;100362.03;;;25.75;45.33
71567;BME280;59403;47.456;19.120;2022-07-29T06:41:32;100357.59;;;25.91;45.67
71567;BME280;59403;47.456;19.120;2022-07-29T06:43:59;100359.25;;;25.97;45.63
71567;BME280;59403;47.456;19.120;2022-07-29T06:46:27;100360.81;;;25.88;44.79
71567;BME280;59403;47.456;19.120;2022-07-29T06:48:54;100358.09;;;26.14;45.13
71567;BME280;59403;47.456;19.120;2022-07-29T06:51:22;100362.34;;;26.37;44.69
71567;BME280;59403;47.456;19.120;2022-07-29T06:53:50;100358.81;;;26.36;44.18
71567;BME280;59403;47.456;19.120;2022-07-29T06:56:17;100367.53;;;26.07;45.15
71567;BME280;59403;47.456;19.120;2022-07-29T06:58:44;100362.03;;;26.02;45.59
71567;BME280;59403;47.456;19.120;2022-07-29T07:01:11;100368.94;;;25.88;46.17
71567;BME280;59403;47.456;19.120;2022-07-29T07:03:39;100360.22;;;26.07;46.47
71567;BME280;59403;47.456;19.120;2022-07-29T07:06:07;100363.38;;;25.99;45.40
71567;BME280;59403;47.456;19.120;2022-07-29T07:08:34;100350.22;;;25.86;47.16
71567;BME280;59403;47.456;19.120;2022-07-29T07:11:01;100357.19;;;26.35;45.44
71567;BME280;59403;47.456;19.120;2022-07-29T07:13:29;100364.31;;;26.88;44.55
71567;BME280;59403;47.456;19.120;2022-07-29T07:16:00;100360.78;;;26.87;43.67
71567;BME280;59403;47.456;19.120;2022-07-29T07:18:27;100360.47;;;26.79;44.20
71567;BME280;59403;47.456;19.120;2022-07-29T07:20:56;100353.28;;;27.15;43.98
71567;BME280;59403;47.456;19.120;2022-07-29T07:23:23;100350.97;;;27.43;43.47
71567;BME280;59403;47.456;19.120;2022-07-29T07:25:51;100357.56;;;27.62;42.97
71567;BME280;59403;47.456;19.120;2022-07-29T07:28:18;100351.56;;;27.70;41.80
71567;BME280;59403;47.456;19.120;2022-07-29T07:30:45;100355.44;;;28.20;41.50
71567;BME280;59403;47.456;19.120;2022-07-29T07:33:12;100349.16;;;28.44;41.70
71567;BME280;59403;47.456;19.120;2022-07-29T07:35:39;100350.56;;;28.22;41.26
71567;BME280;59403;47.456;19.120;2022-07-29T07:38:09;100349.44;;;28.48;40.95
71567;BME280;59403;47.456;19.120;2022-07-29T07:40:37;100352.44;;;28.21;41.39
71567;BME280;59403;47.456;19.120;2022-07-29T07:43:04;100355.16;;;28.21;41.90
71567;BME280;59403;47.456;19.120;2022-07-29T07:45:31;100353.81;;;27.99;41.69
71567;BME280;59403;47.456;19.120;2022-07-29T07:47:59;100353.25;;;28.07;41.77
71567;BME280;59403;47.456;19.120;2022-07-29T07:50:26;100348.06;;;28.15;42.12
71567;BME280;59403;47.456;19.120;2022-07-29T07:52:55;100350.53;;;28.32;41.26
71567;BME280;59403;47.456;19.120;2022-07-29T07:55:25;100348.59;;;28.62;40.97
71567;BME280;59403;47.456;19.120;2022-07-29T07:57:54;100347.41;;;28.93;40.10
71567;BME280;59403;47.456;19.120;2022-07-29T08:00:22;100348.19;;;29.04;40.76
71567;BME280;59403;47.456;19.120;2022-07-29T08:02:58;100354.22;;;29.01;39.55
71567;BME280;59403;47.456;19.120;2022-07-29T08:05:25;100344.25;;;29.35;39.35
71567;BME280;59403;47.456;19.120;2022-07-29T08:07:53;100347.94;;;29.54;39.04
71567;BME280;59403;47.456;19.120;2022-07-29T08:10:20;100341.63;;;29.64;38.53
71567;BME280;59403;47.456;19.120;2022-07-29T08:13:03;100335.87;;;29.65;38.69
71567;BME280;59403;47.456;19.120;2022-07-29T08:15:30;100337.22;;;29.73;38.46
71567;BME280;59403;47.456;19.120;2022-07-29T08:17:57;100335.59;;;30.05;38.05
71567;BME280;59403;47.456;19.120;2022-07-29T08:20:24;100339.06;;;30.16;37.47
71567;BME280;59403;47.456;19.120;2022-07-29T08:22:54;100338.72;;;30.28;37.55
71567;BME280;59403;47.456;19.120;2022-07-29T08:25:21;100342.69;;;30.40;36.31
71567;BME280;59403;47.456;19.120;2022-07-29T08:27:48;100338.37;;;30.34;37.17
71567;BME280;59403;47.456;19.120;2022-07-29T08:30:19;100330.75;;;30.31;37.93
71567;BME280;59403;47.456;19.120;2022-07-29T08:32:47;100331.16;;;30.15;36.44
71567;BME280;59403;47.456;19.120;2022-07-29T08:35:16;100326.16;;;30.27;37.36
71567;BME280;59403;47.456;19.120;2022-07-29T08:37:42;100329.59;;;30.37;39.39
71567;BME280;59403;47.456;19.120;2022-07-29T08:40:10;100337.34;;;30.25;36.52
71567;BME280;59403;47.456;19.120;2022-07-29T08:42:37;100331.31;;;30.57;36.83
71567;BME280;59403;47.456;19.120;2022-07-29T08:45:05;100334.97;;;30.71;37.63
71567;BME280;59403;47.456;19.120;2022-07-29T08:47:34;100325.91;;;30.75;36.60
71567;BME280;59403;47.456;19.120;2022-07-29T08:50:04;100321.84;;;30.96;36.00
71567;BME280;59403;47.456;19.120;2022-07-29T08:52:35;100326.16;;;30.79;36.76
71567;BME280;59403;47.456;19.120;2022-07-29T08:55:04;100324.16;;;31.08;35.31
71567;BME280;59403;47.456;19.120;2022-07-29T08:57:33;100322.88;;;31.00;35.48
71567;BME280;59403;47.456;19.120;2022-07-29T09:00:01;100318.75;;;31.03;34.79
71567;BME280;59403;47.456;19.120;2022-07-29T09:02:29;100324.69;;;31.10;33.46
71567;BME280;59403;47.456;19.120;2022-07-29T09:05:01;100319.63;;;31.41;33.52
71567;BME280;59403;47.456;19.120;2022-07-29T09:07:28;100316.75;;;31.69;33.04
71567;BME280;59403;47.456;19.120;2022-07-29T09:09:55;100320.59;;;31.68;33.41
71567;BME280;59403;47.456;19.120;2022-07-29T09:12:23;100319.25;;;31.84;33.29
71567;BME280;59403;47.456;19.120;2022-07-29T09:14:50;100324.06;;;31.74;33.07
71567;BME280;59403;47.456;19.120;2022-07-29T09:17:17;100315.19;;;32.00;32.44
71567;BME280;59403;47.456;19.120;2022-07-29T09:19:45;100316.88;;;31.96;32.55
71567;BME280;59403;47.456;19.120;2022-07-29T09:22:28;100312.06;;;32.20;32.36
71567;BME280;59403;47.456;19.120;2022-07-29T09:24:57;100310.69;;;32.04;30.57
71567;BME280;59403;47.456;19.120;2022-07-29T09:27:25;100309.53;;;32.24;31.79
71567;BME280;59403;47.456;19.120;2022-07-29T09:29:58;100305.34;;;32.13;31.38
71567;BME280;59403;47.456;19.120;2022-07-29T09:32:26;100304.16;;;32.19;31.24
71567;BME280;59403;47.456;19.120;2022-07-29T09:35:14;100302.13;;;32.11;31.27
71567;BME280;59403;47.456;19.120;2022-07-29T09:37:43;100304.06;;;32.24;32.17
71567;BME280;59403;47.456;19.120;2022-07-29T09:40:15;100296.75;;;32.19;32.30
71567;BME280;59403;47.456;19.120;2022-07-29T09:42:43;100288.72;;;32.23;32.19
71567;BME280;59403;47.456;19.120;2022-07-29T09:45:11;100292.53;;;32.41;31.20
71567;BME280;59403;47.456;19.120;2022-07-29T09:47:43;100284.34;;;32.36;30.60
71567;BME280;59403;47.456;19.120;2022-07-29T09:50:12;100277.37;;;32.30;29.39
71567;BME280;59403;47.456;19.120;2022-07-29T09:52:47;100276.09;;;32.68;30.61
71567;BME280;59403;47.456;19.120;2022-07-29T09:55:15;100281.28;;;32.69;29.55
71567;BME280;59403;47.456;19.120;2022-07-29T09:57:42;100274.94;;;32.82;29.24
71567;BME280;59403;47.456;19.120;2022-07-29T10:00:11;100277.53;;;32.92;28.19
71567;BME280;59403;47.456;19.120;2022-07-29T10:02:40;100271.63;;;32.99;28.43
71567;BME280;59403;47.456;19.120;2022-07-29T10:05:17;100267.81;;;33.22;29.05
71567;BME280;59403;47.456;19.120;2022-07-29T10:07:47;100270.75;;;33.12;28.94
71567;BME280;59403;47.456;19.120;2022-07-29T10:10:21;100272.00;;;33.06;27.72
71567;BME280;59403;47.456;19.120;2022-07-29T10:12:51;100268.38;;;32.97;28.58
71567;BME280;59403;47.456;19.120;2022-07-29T10:15:18;100265.78;;;33.14;27.82
71567;BME280;59403;47.456;19.120;2022-07-29T10:17:46;100262.31;;;33.22;28.21
71567;BME280;59403;47.456;19.120;2022-07-29T10:20:15;100268.75;;;33.04;28.35
71567;BME280;59403;47.456;19.120;2022-07-29T10:22:42;100255.16;;;32.45;29.20
71567;BME280;59403;47.456;19.120;2022-07-29T10:25:14;100258.69;;;32.72;28.38
71567;BME280;59403;47.456;19.120;2022-07-29T10:27:42;100255.00;;;33.17;28.99
71567;BME280;59403;47.456;19.120;2022-07-29T10:30:11;100256.78;;;33.36;28.90
71567;BME280;59403;47.456;19.120;2022-07-29T10:35:43;100253.31;;;33.66;28.69
71567;BME280;59403;47.456;19.120;2022-07-29T10:38:36;100241.13;;;33.36;28.15
71567;BME280;59403;47.456;19.120;2022-07-29T10:41:17;100247.75;;;32.99;28.19
71567;BME280;59403;47.456;19.120;2022-07-29T10:43:58;100239.72;;;32.49;29.08
71567;BME280;59403;47.456;19.120;2022-07-29T10:46:27;100242.91;;;32.10;30.52
71567;BME280;59403;47.456;19.120;2022-07-29T10:49:11;100244.06;;;32.22;29.88
71567;BME280;59403;47.456;19.120;2022-07-29T10:52:03;100241.53;;;32.94;27.91
71567;BME280;59403;47.456;19.120;2022-07-29T10:54:39;100237.66;;;32.81;28.43
71567;BME280;59403;47.456;19.120;2022-07-29T10:57:22;100232.25;;;32.22;28.42
71567;BME280;59403;47.456;19.120;2022-07-29T11:02:46;100222.47;;;32.02;29.35
71567;BME280;59403;47.456;19.120;2022-07-29T11:05:20;100221.91;;;33.00;27.77
71567;BME280;59403;47.456;19.120;2022-07-29T11:08:17;100217.69;;;33.39;27.97
71567;BME280;59403;47.456;19.120;2022-07-29T11:10:47;100215.72;;;33.75;28.39
71567;BME280;59403;47.456;19.120;2022-07-29T11:13:49;100213.66;;;34.11;27.71
71567;BME280;59403;47.456;19.120;2022-07-29T11:16:18;100217.97;;;33.95;27.24
71567;BME280;59403;47.456;19.120;2022-07-29T11:19:21;100213.16;;;33.78;28.70
71567;BME280;59403;47.456;19.120;2022-07-29T11:21:49;100203.84;;;34.58;26.01
71567;BME280;59403;47.456;19.120;2022-07-29T11:24:19;100198.44;;;34.92;25.42
71567;BME280;59403;47.456;19.120;2022-07-29T11:27:10;100198.72;;;34.90;25.38
71567;BME280;59403;47.456;19.120;2022-07-29T11:29:47;100203.66;;;34.46;24.44
71567;BME280;59403;47.456;19.120;2022-07-29T11:32:16;100195.78;;;34.61;23.73
71567;BME280;59403;47.456;19.120;2022-07-29T11:34:45;100186.91;;;34.90;24.99
71567;BME280;59403;47.456;19.120;2022-07-29T11:37:30;100188.16;;;34.67;24.60
71567;BME280;59403;47.456;19.120;2022-07-29T11:40:16;100176.25;;;34.97;25.08
71567;BME280;59403;47.456;19.120;2022-07-29T11:42:48;100179.94;;;34.84;25.01
71567;BME280;59403;47.456;19.120;2022-07-29T11:45:22;100184.62;;;34.75;24.72
71567;BME280;59403;47.456;19.120;2022-07-29T11:47:54;100177.28;;;34.45;26.00
71567;BME280;59403;47.456;19.120;2022-07-29T11:50:41;100174.06;;;34.60;25.00
71567;BME280;59403;47.456;19.120;2022-07-29T11:53:11;100173.75;;;34.61;23.43
71567;BME280;59403;47.456;19.120;2022-07-29T11:55:39;100178.75;;;34.51;23.58
71567;BME280;59403;47.456;19.120;2022-07-29T11:58:07;100175.13;;;34.42;25.12
71567;BME280;59403;47.456;19.120;2022-07-29T12:00:37;100175.44;;;34.96;24.34
71567;BME280;59403;47.456;19.120;2022-07-29T12:03:06;100173.44;;;34.71;24.71
71567;BME280;59403;47.456;19.120;2022-07-29T12:05:40;100170.06;;;34.91;24.42
71567;BME280;59403;47.456;19.120;2022-07-29T12:08:10;100174.16;;;35.02;24.28
71567;BME280;59403;47.456;19.120;2022-07-29T12:10:37;100165.87;;;35.19;23.43
71567;BME280;59403;47.456;19.120;2022-07-29T12:13:04;100170.81;;;35.77;23.68
71567;BME280;59403;47.456;19.120;2022-07-29T12:15:32;100162.63;;;35.43;23.96
71567;BME280;59403;47.456;19.120;2022-07-29T12:18:09;100157.97;;;35.01;23.92
71567;BME280;59403;47.456;19.120;2022-07-29T12:20:36;100158.13;;;34.39;25.14
71567;BME280;59403;47.456;19.120;2022-07-29T12:23:05;100156.00;;;34.19;25.36
71567;BME280;59403;47.456;19.120;2022-07-29T12:25:34;100151.59;;;34.66;24.01
71567;BME280;59403;47.456;19.120;2022-07-29T12:28:04;100152.28;;;34.97;24.38
71567;BME280;59403;47.456;19.120;2022-07-29T12:30:36;100146.41;;;34.82;24.81
71567;BME280;59403;47.456;19.120;2022-07-29T12:33:12;100140.19;;;34.42;24.48
71567;BME280;59403;47.456;19.120;2022-07-29T12:35:41;100147.53;;;34.89;24.24
71567;BME280;59403;47.456;19.120;2022-07-29T12:38:10;100147.09;;;35.13;24.32
71567;BME280;59403;47.456;19.120;2022-07-29T12:40:38;100129.88;;;35.33;24.41
71567;BME280;59403;47.456;19.120;2022-07-29T12:43:09;100132.16;;;35.57;24.18
71567;BME280;59403;47.456;19.120;2022-07-29T12:45:37;100126.00;;;35.51;23.72
71567;BME280;59403;47.456;19.120;2022-07-29T12:48:07;100118.72;;;35.29;23.73
71567;BME280;59403;47.456;19.120;2022-07-29T12:50:52;100115.78;;;35.34;23.87
71567;BME280;59403;47.456;19.120;2022-07-29T12:53:19;100113.34;;;35.50;22.59
71567;BME280;59403;47.456;19.120;2022-07-29T12:55:48;100110.75;;;35.36;23.52
71567;BME280;59403;47.456;19.120;2022-07-29T12:58:36;100104.47;;;35.45;23.37
71567;BME280;59403;47.456;19.120;2022-07-29T13:01:08;100107.22;;;35.19;23.53